createdAt,value
2023-01-17T00:00:18.278Z,92795.91
2023-01-17T00:03:21.724Z,92792.50
2023-01-17T00:06:26.682Z,92790.22
2023-01-17T00:09:30.841Z,92792.53
2023-01-17T00:12:35.744Z,92798.59
2023-01-17T00:15:39.038Z,92798.63
2023-01-17T00:18:42.428Z,92799.06
2023-01-17T00:21:44.229Z,92794.50
2023-01-17T00:24:46.221Z,92804.44
2023-01-17T00:27:51.275Z,92805.59
2023-01-17T00:30:53.646Z,92802.94
2023-01-17T00:33:59.164Z,92808.25
2023-01-17T00:37:03.514Z,92822.41
2023-01-17T00:40:09.711Z,92819.75
2023-01-17T00:43:14.284Z,92828.19
2023-01-17T00:46:18.450Z,92830.75
2023-01-17T00:49:22.113Z,92834.22
2023-01-17T00:52:24.136Z,92837.72
2023-01-17T00:55:28.487Z,92835.53
2023-01-17T00:58:30.971Z,92843.19
2023-01-17T01:01:34.220Z,92845.72
2023-01-17T01:04:39.731Z,92844.59
2023-01-17T01:07:42.318Z,92849.94
2023-01-17T01:10:45.574Z,92846.19
2023-01-17T01:13:50.168Z,92843.84
2023-01-17T01:16:52.297Z,92854.09
2023-01-17T01:19:56.000Z,92852.59
2023-01-17T01:23:00.343Z,92851.47
2023-01-17T01:26:03.309Z,92852.59
2023-01-17T01:29:05.192Z,92857.97
2023-01-17T01:32:07.442Z,92852.75
2023-01-17T01:35:13.285Z,92849.56
2023-01-17T01:38:16.072Z,92855.03
2023-01-17T01:41:18.126Z,92855.75
2023-01-17T01:44:43.071Z,92861.91
2023-01-17T01:47:49.415Z,92866.19
2023-01-17T01:50:55.814Z,92871.75
2023-01-17T01:54:02.061Z,92872.84
2023-01-17T01:57:07.550Z,92872.91
2023-01-17T02:00:17.208Z,92873.75
2023-01-17T02:03:22.728Z,92859.69
2023-01-17T02:06:31.113Z,92874.84
2023-01-17T02:09:35.419Z,92862.31
2023-01-17T02:12:38.390Z,92860.38
2023-01-17T02:15:52.091Z,92858.06
2023-01-17T02:19:05.633Z,92864.56
2023-01-17T02:22:26.060Z,92858.91
2023-01-17T02:25:52.739Z,92862.72
2023-01-17T02:29:15.781Z,92863.88
2023-01-17T02:32:28.234Z,92861.75
2023-01-17T02:35:38.701Z,92868.47
2023-01-17T02:38:50.261Z,92863.69
2023-01-17T02:42:01.815Z,92869.41
2023-01-17T02:45:05.660Z,92863.19
2023-01-17T02:48:14.863Z,92871.66
2023-01-17T02:51:31.614Z,92870.13
2023-01-17T02:55:05.171Z,92879.56
2023-01-17T02:58:21.679Z,92875.41
2023-01-17T03:01:32.946Z,92876.59
2023-01-17T03:04:44.685Z,92885.34
2023-01-17T03:07:49.119Z,92888.13
2023-01-17T03:10:53.300Z,92892.66
2023-01-17T03:13:58.714Z,92902.50
2023-01-17T03:17:00.913Z,92897.53
2023-01-17T03:20:06.035Z,92905.19
2023-01-17T03:23:08.718Z,92904.44
2023-01-17T03:26:12.772Z,92901.03
2023-01-17T03:29:15.879Z,92914.06
2023-01-17T03:32:20.046Z,92922.44
2023-01-17T03:35:23.354Z,92921.66
2023-01-17T03:38:27.720Z,92915.53
2023-01-17T03:41:29.787Z,92920.44
2023-01-17T03:44:33.675Z,92923.13
2023-01-17T03:47:36.547Z,92911.00
2023-01-17T03:50:40.198Z,92904.50
2023-01-17T03:53:42.618Z,92910.59
2023-01-17T03:56:44.882Z,92912.84
2023-01-17T03:59:49.255Z,92902.94
2023-01-17T04:02:52.423Z,92905.22
2023-01-17T04:05:55.830Z,92912.41
2023-01-17T04:08:57.819Z,92911.63
2023-01-17T04:12:01.803Z,92912.41
2023-01-17T04:15:04.567Z,92912.09
2023-01-17T04:18:08.167Z,92906.72
2023-01-17T04:21:14.314Z,92910.53
2023-01-17T04:24:17.857Z,92907.09
2023-01-17T04:27:22.128Z,92897.56
2023-01-17T04:30:26.515Z,92901.03
2023-01-17T04:33:29.111Z,92898.75
2023-01-17T04:36:35.322Z,92905.59
2023-01-17T04:39:37.297Z,92914.31
2023-01-17T04:42:40.374Z,92906.31
2023-01-17T04:45:42.224Z,92911.25
2023-01-17T04:48:46.618Z,92908.22
2023-01-17T04:51:50.036Z,92905.94
2023-01-17T04:54:52.007Z,92908.19
2023-01-17T04:57:56.957Z,92907.44
2023-01-17T05:01:04.110Z,92907.88
2023-01-17T05:04:09.367Z,92924.97
2023-01-17T05:07:13.635Z,92926.09
2023-01-17T05:10:16.049Z,92921.19
2023-01-17T05:13:19.279Z,92918.84
2023-01-17T05:16:23.123Z,92916.66
2023-01-17T05:19:28.950Z,92911.31
2023-01-17T05:22:32.619Z,92911.66
2023-01-17T05:25:35.435Z,92916.91
2023-01-17T05:28:39.796Z,92907.09
2023-01-17T05:31:41.820Z,92913.56
2023-01-17T05:34:44.168Z,92922.38
2023-01-17T05:37:49.663Z,92913.59
2023-01-17T05:40:51.502Z,92918.22
2023-01-17T05:43:54.606Z,92920.06
2023-01-17T05:46:57.079Z,92923.50
2023-01-17T05:50:02.288Z,92927.31
2023-01-17T05:53:07.816Z,92935.31
2023-01-17T05:56:11.986Z,92941.78
2023-01-17T05:59:20.541Z,92947.84
2023-01-17T06:02:29.860Z,92949.75
2023-01-17T06:05:31.921Z,92957.38
2023-01-17T06:08:44.438Z,92962.00
2023-01-17T06:11:46.836Z,92960.06
2023-01-17T06:14:49.167Z,92954.72
2023-01-17T06:17:51.140Z,92963.06
2023-01-17T06:20:54.041Z,92966.09
2023-01-17T06:23:57.716Z,92969.09
2023-01-17T06:26:59.984Z,92972.13
2023-01-17T06:30:04.035Z,92978.19
2023-01-17T06:33:07.348Z,92984.69
2023-01-17T06:36:11.069Z,92985.03
2023-01-17T06:39:15.203Z,92992.66
2023-01-17T06:42:17.103Z,92991.88
2023-01-17T06:45:20.579Z,92994.16
2023-01-17T06:48:22.349Z,93000.22
2023-01-17T06:51:24.239Z,92982.69
2023-01-17T06:54:27.636Z,92989.53
2023-01-17T06:57:29.847Z,92996.00
2023-01-17T07:00:32.359Z,92993.34
2023-01-17T07:03:34.994Z,92995.22
2023-01-17T07:06:39.847Z,92998.25
2023-01-17T07:09:45.145Z,93010.81
2023-01-17T07:12:47.141Z,93003.94
2023-01-17T07:15:50.201Z,92996.28
2023-01-17T07:18:52.034Z,92993.25
2023-01-17T07:21:58.872Z,92991.00
2023-01-17T07:25:03.303Z,92986.03
2023-01-17T07:28:06.082Z,92992.16
2023-01-17T07:31:08.514Z,92981.84
2023-01-17T07:34:10.986Z,92982.69
2023-01-17T07:37:15.084Z,92975.84
2023-01-17T07:40:20.160Z,92971.66
2023-01-17T07:43:24.268Z,92965.19
2023-01-17T07:46:28.443Z,92968.59
2023-01-17T07:49:30.639Z,92969.78
2023-01-17T07:52:33.467Z,92970.22
2023-01-17T07:55:39.093Z,92968.38
2023-01-17T07:58:43.416Z,92966.88
2023-01-17T08:01:45.436Z,92974.06
2023-01-17T08:04:48.324Z,92970.25
2023-01-17T08:07:53.053Z,92965.69
2023-01-17T08:10:58.455Z,92960.72
2023-01-17T08:14:00.608Z,92961.84
2023-01-17T08:17:06.327Z,92951.56
2023-01-17T08:20:11.245Z,92953.84
2023-01-17T08:23:15.442Z,92954.63
2023-01-17T08:26:20.321Z,92965.28
2023-01-17T08:29:22.326Z,92970.97
2023-01-17T08:32:24.132Z,92965.28
2023-01-17T08:35:27.022Z,92961.88
2023-01-17T08:38:28.827Z,92963.78
2023-01-17T08:41:34.884Z,92953.03
2023-01-17T08:44:36.966Z,92963.69
2023-01-17T08:47:41.490Z,92970.94
2023-01-17T08:50:44.005Z,92975.13
2023-01-17T08:53:45.866Z,92971.69
2023-01-17T08:56:52.336Z,92962.50
2023-01-17T08:59:57.379Z,92967.03
2023-01-17T09:06:25.984Z,92960.09
2023-01-17T09:09:29.085Z,92955.81
2023-01-17T09:12:33.832Z,92952.34
2023-01-17T09:15:35.627Z,92956.13
2023-01-17T09:18:37.779Z,92953.06
2023-01-17T09:21:39.900Z,92941.22
2023-01-17T09:24:42.734Z,92939.63
2023-01-17T09:27:47.184Z,92929.34
2023-01-17T09:30:50.406Z,92915.28
2023-01-17T09:33:54.579Z,92920.19
2023-01-17T09:36:58.735Z,92916.47
2023-01-17T09:40:00.512Z,92914.09
2023-01-17T09:43:12.646Z,92910.19
2023-01-17T09:46:20.930Z,92913.94
2023-01-17T09:49:36.698Z,92903.59
2023-01-17T09:52:38.715Z,92896.31
2023-01-17T09:55:48.624Z,92896.59
2023-01-17T09:59:18.751Z,92888.91
2023-01-17T10:02:39.771Z,92884.69
2023-01-17T10:05:57.061Z,92878.97
2023-01-17T10:09:10.427Z,92869.00
2023-01-17T10:12:21.310Z,92867.13
2023-01-17T10:15:48.507Z,92859.44
2023-01-17T10:19:10.591Z,92854.44
2023-01-17T10:22:32.764Z,92848.63
2023-01-17T10:25:48.931Z,92846.16
2023-01-17T10:28:52.633Z,92841.13
2023-01-17T10:32:01.100Z,92830.81
2023-01-17T10:35:17.379Z,92840.78
2023-01-17T10:38:24.543Z,92826.28
2023-01-17T10:41:29.673Z,92823.16
2023-01-17T10:44:48.769Z,92800.97
2023-01-17T10:48:00.095Z,92790.94
2023-01-17T10:51:14.884Z,92789.38
2023-01-17T10:54:30.109Z,92775.94
2023-01-17T10:57:41.024Z,92773.88
2023-01-17T11:00:51.389Z,92784.06
2023-01-17T11:03:54.635Z,92779.41
2023-01-17T11:07:12.360Z,92787.66
2023-01-17T11:10:34.342Z,92777.94
2023-01-17T11:13:39.749Z,92763.78
2023-01-17T11:16:43.068Z,92749.19
2023-01-17T11:19:53.915Z,92725.00
2023-01-17T11:23:08.498Z,92704.25
2023-01-17T11:26:20.799Z,92691.59
2023-01-17T11:29:36.948Z,92683.22
2023-01-17T11:32:39.166Z,92663.47
2023-01-17T11:35:45.216Z,92648.09
2023-01-17T11:38:56.770Z,92644.75
2023-01-17T11:41:59.253Z,92658.28
2023-01-17T11:45:24.237Z,92667.94
2023-01-17T11:48:33.426Z,92668.97
2023-01-17T11:51:41.242Z,92673.00
2023-01-17T11:54:50.379Z,92673.81
2023-01-17T11:57:52.489Z,92687.94
2023-01-17T12:01:09.161Z,92690.59
2023-01-17T12:04:24.714Z,92686.41
2023-01-17T12:07:36.180Z,92686.78
2023-01-17T12:10:48.413Z,92683.28
2023-01-17T12:14:06.395Z,92686.34
2023-01-17T12:17:28.410Z,92693.63
2023-01-17T12:20:44.418Z,92679.78
2023-01-17T12:24:01.370Z,92662.38
2023-01-17T12:27:15.086Z,92670.25
2023-01-17T12:30:38.152Z,92662.78
2023-01-17T12:33:49.898Z,92666.97
2023-01-17T12:36:57.952Z,92673.81
2023-01-17T12:40:18.171Z,92668.94
2023-01-17T12:43:27.164Z,92653.66
2023-01-17T12:46:36.145Z,92635.50
2023-01-17T12:49:45.358Z,92628.78
2023-01-17T12:52:54.252Z,92618.16
2023-01-17T12:56:03.181Z,92595.13
2023-01-17T12:59:15.392Z,92581.63
2023-01-17T13:02:30.364Z,92568.63
2023-01-17T13:05:36.772Z,92561.22
2023-01-17T13:08:43.729Z,92568.41
2023-01-17T13:11:53.628Z,92563.34
2023-01-17T13:15:00.461Z,92566.28
2023-01-17T13:18:11.039Z,92559.16
2023-01-17T13:21:29.683Z,92560.19
2023-01-17T13:24:42.506Z,92567.63
2023-01-17T13:28:12.494Z,92575.50
2023-01-17T13:31:45.276Z,92571.75
2023-01-17T13:35:12.665Z,92565.97
2023-01-17T13:38:44.203Z,92559.19
2023-01-17T13:41:50.477Z,92564.97
2023-01-17T13:44:54.290Z,92570.22
2023-01-17T13:48:25.831Z,92578.38
2023-01-17T13:52:01.979Z,92572.63
2023-01-17T13:55:05.983Z,92575.13
2023-01-17T13:58:27.668Z,92563.72
2023-01-17T14:01:57.041Z,92557.78
2023-01-17T14:05:11.821Z,92558.09
2023-01-17T14:08:16.827Z,92550.41
2023-01-17T14:11:19.527Z,92537.03
2023-01-17T14:14:46.587Z,92525.59
2023-01-17T14:17:56.225Z,92516.38
2023-01-17T14:21:21.658Z,92513.59
2023-01-17T14:24:23.691Z,92530.38
2023-01-17T14:27:27.647Z,92530.06
2023-01-17T14:30:35.890Z,92522.22
2023-01-17T14:33:41.976Z,92523.16
2023-01-17T14:36:46.863Z,92516.44
2023-01-17T14:39:50.857Z,92507.50
2023-01-17T14:42:59.124Z,92497.50
2023-01-17T14:46:04.369Z,92484.66
2023-01-17T14:49:22.240Z,92475.13
2023-01-17T14:52:24.027Z,92480.06
2023-01-17T14:55:28.093Z,92475.56
2023-01-17T14:58:32.046Z,92473.63
2023-01-17T15:01:34.448Z,92456.47
2023-01-17T15:04:38.263Z,92449.22
2023-01-17T15:07:45.638Z,92447.78
2023-01-17T15:10:51.592Z,92442.75
2023-01-17T15:13:56.612Z,92440.38
2023-01-17T15:17:09.751Z,92428.09
2023-01-17T15:20:21.089Z,92417.47
2023-01-17T15:23:26.377Z,92410.78
2023-01-17T15:26:33.248Z,92397.75
2023-01-17T15:29:35.845Z,92384.91
2023-01-17T15:32:38.830Z,92369.28
2023-01-17T15:35:45.245Z,92381.47
2023-01-17T15:38:52.376Z,92371.22
2023-01-17T15:41:57.292Z,92360.06
2023-01-17T15:45:02.771Z,92367.53
2023-01-17T15:48:33.566Z,92354.88
2023-01-17T15:51:50.188Z,92357.03
2023-01-17T15:54:54.422Z,92361.50
2023-01-17T15:57:57.174Z,92358.91
2023-01-17T16:01:01.682Z,92355.75
2023-01-17T16:04:32.872Z,92353.06
2023-01-17T16:07:39.122Z,92353.41
2023-01-17T16:10:41.787Z,92356.81
2023-01-17T16:13:44.560Z,92344.72
2023-01-17T16:16:52.357Z,92322.69
2023-01-17T16:19:55.955Z,92289.00
2023-01-17T16:23:00.693Z,92269.63
2023-01-17T16:26:02.757Z,92265.94
2023-01-17T16:29:06.872Z,92271.38
2023-01-17T16:32:10.987Z,92274.00
2023-01-17T16:35:17.195Z,92275.47
2023-01-17T16:38:24.071Z,92271.31
2023-01-17T16:41:26.344Z,92261.81
2023-01-17T16:44:29.419Z,92266.09
2023-01-17T16:47:31.541Z,92253.13
2023-01-17T16:50:34.477Z,92255.31
2023-01-17T16:53:41.046Z,92268.00
2023-01-17T16:56:43.133Z,92282.13
2023-01-17T16:59:50.807Z,92273.38
2023-01-17T17:02:54.273Z,92268.66
2023-01-17T17:06:01.000Z,92273.59
2023-01-17T17:09:04.879Z,92283.34
2023-01-17T17:12:07.413Z,92285.50
2023-01-17T17:15:10.983Z,92290.97
2023-01-17T17:18:14.653Z,92299.81
2023-01-17T17:21:16.605Z,92294.78
2023-01-17T17:24:23.383Z,92300.63
2023-01-17T17:27:25.503Z,92303.31
2023-01-17T17:30:27.832Z,92300.19
2023-01-17T17:33:32.156Z,92312.81
2023-01-17T17:36:38.581Z,92320.06
2023-01-17T17:39:44.604Z,92318.81
2023-01-17T17:42:46.851Z,92311.78
2023-01-17T17:45:49.593Z,92308.25
2023-01-17T17:48:51.617Z,92309.19
2023-01-17T17:51:57.132Z,92310.13
2023-01-17T17:55:02.706Z,92318.34
2023-01-17T17:58:06.011Z,92322.78
2023-01-17T18:01:08.530Z,92325.28
2023-01-17T18:04:10.664Z,92320.34
2023-01-17T18:07:12.996Z,92318.13
2023-01-17T18:10:22.948Z,92316.88
2023-01-17T18:13:25.138Z,92315.44
2023-01-17T18:16:30.938Z,92312.88
2023-01-17T18:19:34.627Z,92311.63
2023-01-17T18:22:37.922Z,92310.47
2023-01-17T18:25:43.179Z,92311.50
2023-01-17T18:28:47.131Z,92310.56
2023-01-17T18:31:54.336Z,92310.09
2023-01-17T18:34:56.965Z,92304.81
2023-01-17T18:38:02.908Z,92304.78
2023-01-17T18:41:08.925Z,92297.03
2023-01-17T18:44:13.283Z,92293.03
2023-01-17T18:47:15.925Z,92296.44
2023-01-17T18:50:19.187Z,92292.28
2023-01-17T18:53:22.447Z,92291.41
2023-01-17T18:56:30.791Z,92283.00
2023-01-17T18:59:34.082Z,92275.69
2023-01-17T19:02:38.379Z,92280.31
2023-01-17T19:05:42.520Z,92288.22
2023-01-17T19:08:47.358Z,92286.28
2023-01-17T19:11:54.090Z,92281.59
2023-01-17T19:14:57.921Z,92299.19
2023-01-17T19:18:00.842Z,92302.56
2023-01-17T19:21:07.204Z,92300.13
2023-01-17T19:24:12.020Z,92306.88
2023-01-17T19:27:18.774Z,92300.75
2023-01-17T19:30:21.863Z,92300.19
2023-01-17T19:33:25.056Z,92305.53
2023-01-17T19:36:31.559Z,92312.31
2023-01-17T19:39:34.630Z,92309.97
2023-01-17T19:42:41.607Z,92320.59
2023-01-17T19:45:45.715Z,92319.78
2023-01-17T19:48:49.020Z,92333.81
2023-01-17T19:51:51.895Z,92334.97
2023-01-17T19:54:56.999Z,92333.81
2023-01-17T19:58:04.581Z,92327.97
2023-01-17T20:01:09.640Z,92325.72
2023-01-17T20:04:15.776Z,92329.22
2023-01-17T20:07:20.274Z,92326.69
2023-01-17T20:10:23.525Z,92322.81
2023-01-17T20:13:28.432Z,92341.25
2023-01-17T20:16:32.089Z,92374.75
2023-01-17T20:19:34.634Z,92380.84
2023-01-17T20:22:37.416Z,92389.19
2023-01-17T20:25:39.858Z,92400.13
2023-01-17T20:28:45.564Z,92421.06
2023-01-17T20:31:51.782Z,92423.31
2023-01-17T20:34:53.963Z,92431.25
2023-01-17T20:37:56.851Z,92432.06
2023-01-17T20:40:59.759Z,92431.44
2023-01-17T20:44:06.329Z,92426.88
2023-01-17T20:47:08.832Z,92432.84
2023-01-17T20:50:11.850Z,92435.53
2023-01-17T20:53:17.495Z,92432.44
2023-01-17T20:56:22.079Z,92443.00
2023-01-17T20:59:27.780Z,92438.72
2023-01-17T21:02:29.804Z,92439.28
2023-01-17T21:05:32.187Z,92450.63
2023-01-17T21:08:36.184Z,92442.59
2023-01-17T21:11:39.510Z,92449.94
2023-01-17T21:14:45.319Z,92437.53
2023-01-17T21:17:48.073Z,92447.16
2023-01-17T21:20:50.478Z,92454.00
2023-01-17T21:23:54.378Z,92454.31
2023-01-17T21:26:57.171Z,92450.25
2023-01-17T21:30:00.819Z,92448.06
2023-01-17T21:33:05.187Z,92454.19
2023-01-17T21:36:07.885Z,92463.28
2023-01-17T21:39:12.815Z,92477.31
2023-01-17T21:42:15.433Z,92471.19
2023-01-17T21:45:19.357Z,92476.09
2023-01-17T21:48:24.486Z,92485.63
2023-01-17T21:51:26.730Z,92491.69
2023-01-17T21:54:29.687Z,92495.00
2023-01-17T21:57:33.975Z,92480.59
2023-01-17T22:00:37.666Z,92469.56
2023-01-17T22:03:39.728Z,92478.22
2023-01-17T22:06:41.528Z,92471.44
2023-01-17T22:09:45.838Z,92468.91
2023-01-17T22:12:47.638Z,92481.84
2023-01-17T22:15:59.571Z,92482.16
2023-01-17T22:19:02.406Z,92488.16
2023-01-17T22:22:06.687Z,92494.28
2023-01-17T22:25:08.913Z,92493.97
2023-01-17T22:28:10.932Z,92502.00
2023-01-17T22:31:16.158Z,92511.91
2023-01-17T22:34:18.163Z,92504.22
2023-01-17T22:37:20.975Z,92505.69
2023-01-17T22:40:22.813Z,92517.53
2023-01-17T22:43:24.767Z,92519.78
2023-01-17T22:46:32.172Z,92519.81
2023-01-17T22:49:34.338Z,92520.41
2023-01-17T22:52:38.720Z,92519.81
2023-01-17T22:55:40.717Z,92524.13
2023-01-17T22:58:43.256Z,92525.38
2023-01-17T23:01:46.443Z,92521.28
2023-01-17T23:04:48.711Z,92514.34
2023-01-17T23:07:50.741Z,92503.44
2023-01-17T23:10:52.770Z,92516.38
2023-01-17T23:13:54.822Z,92514.09
2023-01-17T23:17:03.647Z,92521.72
2023-01-17T23:20:07.964Z,92505.34
2023-01-17T23:23:09.984Z,92525.19
2023-01-17T23:26:12.025Z,92520.94
2023-01-17T23:29:14.018Z,92524.75
2023-01-17T23:32:25.358Z,92526.66
2023-01-17T23:35:29.084Z,92532.09
2023-01-17T23:38:31.355Z,92527.47
2023-01-17T23:41:33.666Z,92540.03
2023-01-17T23:44:35.674Z,92539.22
2023-01-17T23:47:38.862Z,92537.69
2023-01-17T23:50:42.631Z,92532.69
2023-01-17T23:53:45.220Z,92538.00
2023-01-17T23:56:47.316Z,92540.16
2023-01-17T23:59:49.099Z,92523.81
